sensor_id;sensor_type;location;lat;lon;timestamp;P1;durP1;ratioP1;P2;durP2;ratioP2
46505;SDS011;32220;49.808;9.968;2023-11-18T09:38:42;12.60;;;7.37;;
46505;SDS011;32220;49.808;9.968;2023-11-18T09:41:12;11.93;;;7.57;;
46505;SDS011;32220;49.808;9.968;2023-11-18T09:44:00;10.37;;;6.30;;
46505;SDS011;32220;49.808;9.968;2023-11-18T09:53:23;9.13;;;5.87;;
46505;SDS011;32220;49.808;9.968;2023-11-18T09:59:41;8.57;;;5.23;;
46505;SDS011;32220;49.808;9.968;2023-11-18T10:02:14;12.50;;;5.77;;
46505;SDS011;32220;49.808;9.968;2023-11-18T10:05:06;8.37;;;5.50;;
46505;SDS011;32220;49.808;9.968;2023-11-18T10:08:02;10.10;;;6.43;;
46505;SDS011;32220;49.808;9.968;2023-11-18T10:10:52;10.10;;;6.27;;
46505;SDS011;32220;49.808;9.968;2023-11-18T10:13:40;13.87;;;6.70;;
46505;SDS011;32220;49.808;9.968;2023-11-18T10:43:24;13.10;;;8.27;;
46505;SDS011;32220;49.808;9.968;2023-11-18T10:46:09;11.33;;;8.07;;
46505;SDS011;32220;49.808;9.968;2023-11-18T10:48:59;14.17;;;8.40;;
46505;SDS011;32220;49.808;9.968;2023-11-18T10:51:48;15.90;;;9.20;;
46505;SDS011;32220;49.808;9.968;2023-11-18T10:54:58;10.47;;;7.73;;
46505;SDS011;32220;49.808;9.968;2023-11-18T10:57:50;15.80;;;9.30;;
46505;SDS011;32220;49.808;9.968;2023-11-18T11:00:57;15.03;;;8.97;;
46505;SDS011;32220;49.808;9.968;2023-11-18T11:03:27;14.67;;;9.37;;
46505;SDS011;32220;49.808;9.968;2023-11-18T11:09:32;12.57;;;8.60;;
46505;SDS011;32220;49.808;9.968;2023-11-18T11:12:04;18.27;;;9.40;;
46505;SDS011;32220;49.808;9.968;2023-11-18T11:14:57;13.90;;;9.23;;
46505;SDS011;32220;49.808;9.968;2023-11-18T11:18:02;18.37;;;9.93;;
46505;SDS011;32220;49.808;9.968;2023-11-18T11:24:25;16.40;;;9.63;;
46505;SDS011;32220;49.808;9.968;2023-11-18T11:27:25;12.77;;;9.23;;
46505;SDS011;32220;49.808;9.968;2023-11-18T11:30:27;16.00;;;9.37;;
46505;SDS011;32220;49.808;9.968;2023-11-18T11:33:14;16.23;;;10.00;;
46505;SDS011;32220;49.808;9.968;2023-11-18T11:36:09;14.17;;;10.07;;
46505;SDS011;32220;49.808;9.968;2023-11-18T11:38:59;14.73;;;9.63;;
46505;SDS011;32220;49.808;9.968;2023-11-18T11:41:27;14.90;;;9.80;;
46505;SDS011;32220;49.808;9.968;2023-11-18T11:59:36;13.40;;;9.37;;
46505;SDS011;32220;49.808;9.968;2023-11-18T12:02:22;13.50;;;9.33;;
46505;SDS011;32220;49.808;9.968;2023-11-18T12:05:07;15.13;;;9.60;;
46505;SDS011;32220;49.808;9.968;2023-11-18T12:07:45;13.63;;;8.90;;
46505;SDS011;32220;49.808;9.968;2023-11-18T12:10:16;15.07;;;10.00;;
46505;SDS011;32220;49.808;9.968;2023-11-18T12:12:47;15.00;;;9.90;;
46505;SDS011;32220;49.808;9.968;2023-11-18T12:18:21;16.83;;;9.97;;
46505;SDS011;32220;49.808;9.968;2023-11-18T12:20:52;13.83;;;10.20;;
46505;SDS011;32220;49.808;9.968;2023-11-18T12:23:53;13.27;;;9.77;;
46505;SDS011;32220;49.808;9.968;2023-11-18T12:26:48;14.83;;;9.60;;
46505;SDS011;32220;49.808;9.968;2023-11-18T12:29:41;13.83;;;9.73;;
46505;SDS011;32220;49.808;9.968;2023-11-18T12:32:59;12.67;;;9.03;;
46505;SDS011;32220;49.808;9.968;2023-11-18T12:42:44;12.77;;;8.40;;
46505;SDS011;32220;49.808;9.968;2023-11-18T12:48:43;11.20;;;8.80;;
46505;SDS011;32220;49.808;9.968;2023-11-18T12:51:14;16.63;;;11.03;;
46505;SDS011;32220;49.808;9.968;2023-11-18T12:54:25;15.23;;;10.63;;
46505;SDS011;32220;49.808;9.968;2023-11-18T12:57:17;15.20;;;10.27;;
46505;SDS011;32220;49.808;9.968;2023-11-18T13:03:30;15.97;;;10.10;;
46505;SDS011;32220;49.808;9.968;2023-11-18T13:06:04;12.23;;;9.00;;
46505;SDS011;32220;49.808;9.968;2023-11-18T13:08:55;14.03;;;10.43;;
46505;SDS011;32220;49.808;9.968;2023-11-18T13:11:57;12.97;;;9.30;;
46505;SDS011;32220;49.808;9.968;2023-11-18T13:27:49;14.13;;;9.97;;
46505;SDS011;32220;49.808;9.968;2023-11-18T13:30:37;15.20;;;10.90;;
46505;SDS011;32220;49.808;9.968;2023-11-18T13:33:29;14.90;;;10.23;;
46505;SDS011;32220;49.808;9.968;2023-11-18T13:35:57;13.53;;;9.97;;
46505;SDS011;32220;49.808;9.968;2023-11-18T13:38:39;17.97;;;11.63;;
46505;SDS011;32220;49.808;9.968;2023-11-18T13:41:09;15.37;;;11.50;;
46505;SDS011;32220;49.808;9.968;2023-11-18T13:43:55;15.73;;;11.47;;
46505;SDS011;32220;49.808;9.968;2023-11-18T13:46:24;15.03;;;10.67;;
46505;SDS011;32220;49.808;9.968;2023-11-18T13:48:53;14.00;;;10.53;;
46505;SDS011;32220;49.808;9.968;2023-11-18T13:51:21;14.60;;;10.57;;
46505;SDS011;32220;49.808;9.968;2023-11-18T13:53:50;14.10;;;9.93;;
46505;SDS011;32220;49.808;9.968;2023-11-18T13:56:18;15.43;;;9.43;;
46505;SDS011;32220;49.808;9.968;2023-11-18T13:58:48;16.03;;;10.97;;
46505;SDS011;32220;49.808;9.968;2023-11-18T14:01:18;14.40;;;9.33;;
46505;SDS011;32220;49.808;9.968;2023-11-18T14:03:47;16.00;;;10.53;;
46505;SDS011;32220;49.808;9.968;2023-11-18T14:06:15;13.73;;;10.80;;
46505;SDS011;32220;49.808;9.968;2023-11-18T14:08:43;14.97;;;10.07;;
46505;SDS011;32220;49.808;9.968;2023-11-18T14:11:11;14.70;;;10.90;;
46505;SDS011;32220;49.808;9.968;2023-11-18T14:13:40;17.37;;;11.43;;
46505;SDS011;32220;49.808;9.968;2023-11-18T14:16:07;21.07;;;13.67;;
46505;SDS011;32220;49.808;9.968;2023-11-18T14:18:39;15.90;;;11.33;;
46505;SDS011;32220;49.808;9.968;2023-11-18T14:21:08;15.93;;;11.17;;
46505;SDS011;32220;49.808;9.968;2023-11-18T14:23:36;15.83;;;10.70;;
46505;SDS011;32220;49.808;9.968;2023-11-18T14:26:05;20.53;;;11.60;;
46505;SDS011;32220;49.808;9.968;2023-11-18T14:28:33;14.17;;;9.90;;
46505;SDS011;32220;49.808;9.968;2023-11-18T14:31:01;13.83;;;9.73;;
46505;SDS011;32220;49.808;9.968;2023-11-18T14:33:31;15.07;;;10.47;;
46505;SDS011;32220;49.808;9.968;2023-11-18T14:36:02;14.83;;;10.17;;
46505;SDS011;32220;49.808;9.968;2023-11-18T14:38:31;18.07;;;11.53;;
46505;SDS011;32220;49.808;9.968;2023-11-18T14:41:00;13.37;;;10.13;;
46505;SDS011;32220;49.808;9.968;2023-11-18T14:43:30;14.73;;;10.07;;
46505;SDS011;32220;49.808;9.968;2023-11-18T14:45:58;16.37;;;10.40;;
46505;SDS011;32220;49.808;9.968;2023-11-18T14:48:25;15.27;;;10.27;;
46505;SDS011;32220;49.808;9.968;2023-11-18T14:50:55;13.73;;;9.47;;
46505;SDS011;32220;49.808;9.968;2023-11-18T14:53:25;14.17;;;10.47;;
46505;SDS011;32220;49.808;9.968;2023-11-18T14:55:53;13.07;;;8.83;;
46505;SDS011;32220;49.808;9.968;2023-11-18T14:58:20;12.03;;;8.53;;
46505;SDS011;32220;49.808;9.968;2023-11-18T15:00:48;11.80;;;8.27;;
46505;SDS011;32220;49.808;9.968;2023-11-18T15:03:16;12.17;;;8.17;;
46505;SDS011;32220;49.808;9.968;2023-11-18T15:05:44;13.30;;;8.47;;
46505;SDS011;32220;49.808;9.968;2023-11-18T15:08:12;11.93;;;8.20;;
46505;SDS011;32220;49.808;9.968;2023-11-18T15:10:43;11.47;;;8.27;;
46505;SDS011;32220;49.808;9.968;2023-11-18T15:13:12;11.67;;;8.13;;
46505;SDS011;32220;49.808;9.968;2023-11-18T15:15:41;10.60;;;7.60;;
46505;SDS011;32220;49.808;9.968;2023-11-18T15:18:08;10.60;;;8.60;;
46505;SDS011;32220;49.808;9.968;2023-11-18T15:20:40;9.30;;;7.10;;
46505;SDS011;32220;49.808;9.968;2023-11-18T15:23:09;12.73;;;7.33;;
46505;SDS011;32220;49.808;9.968;2023-11-18T15:25:37;12.73;;;9.23;;
46505;SDS011;32220;49.808;9.968;2023-11-18T15:28:06;16.80;;;11.00;;
46505;SDS011;32220;49.808;9.968;2023-11-18T15:30:35;12.83;;;10.60;;
46505;SDS011;32220;49.808;9.968;2023-11-18T15:33:03;14.23;;;9.70;;
46505;SDS011;32220;49.808;9.968;2023-11-18T15:35:34;12.90;;;9.37;;
